»·PEaware :: N333ZS KSBA-KRAL

N333ZS :: KSBA-KRAL

FLIGHT INFORMATION

Flight Status: Arrived
Operator: Privately registered:
United States
More flights under this callsign
Pilot: Judd H. (29974)
Aircraft: CESSNA 182 SKYLANE
(C182)
More flights by this aircraft type
Origin: KSBA Santa Barbara Mun
United States
Destination: KRAL Riverside Mun
United States
More flights between these airports :: More routes between these airports
Route: +KWANG CMA VNY V186 PDZ
File this flight plan on PilotEdge
Remarks:
Altitude:
(Current/Filed)
5,000ft
Speed:
(Current/Filed)
120kts
Departed: 16-Oct-20 06:54 PM
Arrived: 16-Oct-20 08:09 PM
Distance/Time
Traveled:
122nm/1:15
Distance/Time
To Go:
Arrived

Flight Plot

Page will automatically refresh every two minutes.


Map Options




Map Legend


Flown Route
Filed Route
Departure Airport
Arrival Airport
Navaid (VOR, NDB)
Fix

Horizontal Profiles

Position Reports

Time Latitude Longitude Heading Altitude Ground
Speed
16-Oct-20 18:38 34.423503 -119.835826 164 13ft 0kts
16-Oct-20 18:40 34.423501 -119.835825 164 13ft 0kts
16-Oct-20 18:41 34.423500 -119.835825 164 13ft 0kts
16-Oct-20 18:42 34.423499 -119.835824 164 13ft 0kts
16-Oct-20 18:43 34.423497 -119.835824 164 13ft 0kts
16-Oct-20 18:44 34.423496 -119.835823 164 13ft 0kts
16-Oct-20 18:45 34.423494 -119.835823 164 13ft 0kts
16-Oct-20 18:46 34.423493 -119.835823 164 13ft 0kts
16-Oct-20 18:47 34.423491 -119.835822 164 13ft 0kts
16-Oct-20 18:48 34.423489 -119.835821 164 13ft 0kts
16-Oct-20 18:49 34.423273 -119.835867 223 13ft 0kts
16-Oct-20 18:50 34.423866 -119.837419 342 13ft 12kts
16-Oct-20 18:51 34.427965 -119.838692 346 13ft 19kts
16-Oct-20 18:52 34.430458 -119.839923 205 13ft 0kts
16-Oct-20 18:53 34.428670 -119.839711 166 13ft 34kts
16-Oct-20 18:54 34.402619 -119.831955 167 644ft 117kts
16-Oct-20 18:55 34.371753 -119.821682 162 1647ft 118kts
16-Oct-20 18:56 34.339591 -119.809801 162 2309ft 120kts
16-Oct-20 18:57 34.309916 -119.798060 147 3096ft 109kts
16-Oct-20 18:58 34.304548 -119.763063 92 3766ft 109kts
16-Oct-20 18:58 34.304182 -119.732733 91 4333ft 106kts
16-Oct-20 18:59 34.304775 -119.696974 87 4975ft 106kts
16-Oct-20 19:00 34.305571 -119.656587 86 5066ft 131kts
16-Oct-20 19:01 34.307148 -119.615636 90 5064ft 135kts
16-Oct-20 19:02 34.307904 -119.570666 84 5058ft 131kts
16-Oct-20 19:03 34.308312 -119.526840 90 5062ft 129kts
16-Oct-20 19:04 34.301882 -119.483667 104 5073ft 135kts
16-Oct-20 19:05 34.291274 -119.439286 99 5090ft 138kts
16-Oct-20 19:06 34.281259 -119.394037 101 5084ft 139kts
16-Oct-20 19:07 34.271153 -119.349011 101 5084ft 138kts
16-Oct-20 19:08 34.261025 -119.303996 100 5085ft 138kts
16-Oct-20 19:09 34.250879 -119.258996 100 5085ft 138kts
16-Oct-20 19:10 34.240823 -119.213909 100 5084ft 138kts
16-Oct-20 19:11 34.230724 -119.168940 101 5084ft 139kts
16-Oct-20 19:12 34.220685 -119.123718 100 5084ft 138kts
16-Oct-20 19:13 34.213483 -119.078454 88 5084ft 136kts
16-Oct-20 19:14 34.211745 -119.032572 86 5084ft 136kts
16-Oct-20 19:15 34.211367 -118.986860 84 5084ft 135kts
16-Oct-20 19:16 34.212923 -118.941416 82 5084ft 135kts
16-Oct-20 19:17 34.215515 -118.895886 82 5087ft 136kts
16-Oct-20 19:18 34.218661 -118.850284 81 5083ft 138kts
16-Oct-20 19:19 34.223619 -118.802913 91 5008ft 142kts
16-Oct-20 19:20 34.223596 -118.756157 92 5020ft 137kts
16-Oct-20 19:21 34.223726 -118.710301 92 5024ft 136kts
16-Oct-20 19:22 34.223836 -118.664352 92 5034ft 136kts
16-Oct-20 19:23 34.223912 -118.619043 92 5038ft 137kts
16-Oct-20 19:24 34.223872 -118.572998 92 5040ft 137kts
16-Oct-20 19:25 34.223783 -118.526589 92 5042ft 137kts
16-Oct-20 19:26 34.220436 -118.481045 111 5057ft 135kts
16-Oct-20 19:27 34.208312 -118.437849 111 5042ft 136kts
16-Oct-20 19:28 34.195225 -118.394463 115 5026ft 137kts
16-Oct-20 19:29 34.180586 -118.352986 115 5016ft 138kts
16-Oct-20 19:30 34.166802 -118.309660 110 5020ft 137kts
16-Oct-20 19:31 34.154537 -118.266569 112 5021ft 138kts
16-Oct-20 19:32 34.140742 -118.223061 112 5013ft 139kts
16-Oct-20 19:33 34.126537 -118.179251 112 5010ft 139kts
16-Oct-20 19:34 34.112428 -118.135651 112 5038ft 140kts
16-Oct-20 19:35 34.097870 -118.089965 111 4999ft 139kts
16-Oct-20 19:36 34.084026 -118.046651 112 5003ft 137kts
16-Oct-20 19:37 34.070686 -118.003622 112 5004ft 136kts
16-Oct-20 19:38 34.057246 -117.960823 113 5005ft 136kts
16-Oct-20 19:39 34.043315 -117.918270 112 5004ft 136kts
16-Oct-20 19:40 34.029678 -117.876228 112 5003ft 136kts
16-Oct-20 19:41 34.016061 -117.833725 113 5007ft 135kts
16-Oct-20 19:42 34.003333 -117.790838 111 5014ft 136kts
16-Oct-20 19:43 33.991384 -117.747388 111 5021ft 137kts
16-Oct-20 19:44 33.978241 -117.704189 113 5027ft 137kts
16-Oct-20 19:45 33.964617 -117.661076 115 5032ft 138kts
16-Oct-20 19:46 33.949964 -117.618399 115 5033ft 138kts
16-Oct-20 19:47 33.935248 -117.575671 116 5033ft 138kts
16-Oct-20 19:48 33.921070 -117.532601 105 5030ft 139kts
16-Oct-20 19:49 33.913588 -117.486550 104 5033ft 139kts
16-Oct-20 19:50 33.905867 -117.440583 104 5033ft 140kts
16-Oct-20 19:51 33.897827 -117.394611 104 5034ft 140kts
16-Oct-20 19:52 33.889252 -117.348516 104 5034ft 140kts
16-Oct-20 19:53 33.879819 -117.303144 103 5035ft 139kts
16-Oct-20 19:54 33.869588 -117.258313 103 5034ft 137kts
16-Oct-20 19:55 33.859346 -117.213937 103 5033ft 138kts
16-Oct-20 19:56 33.849689 -117.168953 104 5034ft 139kts
16-Oct-20 19:57 33.842625 -117.123268 84 5028ft 139kts
16-Oct-20 19:58 33.875170 -117.105499 351 5016ft 147kts
16-Oct-20 19:59 33.892250 -117.137634 283 4632ft 115kts
16-Oct-20 20:00 33.899842 -117.174584 287 4101ft 102kts
16-Oct-20 20:01 33.908904 -117.209114 292 4125ft 117kts
16-Oct-20 20:02 33.914868 -117.248566 278 4048ft 122kts
16-Oct-20 20:03 33.921739 -117.286323 284 3301ft 111kts
16-Oct-20 20:04 33.928646 -117.320986 281 2710ft 105kts
16-Oct-20 20:05 33.935027 -117.354385 284 2201ft 103kts
16-Oct-20 20:06 33.941700 -117.388498 282 1624ft 105kts
16-Oct-20 20:07 33.948125 -117.422455 282 1152ft 97kts
16-Oct-20 20:08 33.952513 -117.444876 280 770ft 33kts
16-Oct-20 20:09 33.952558 -117.449183 172 770ft 0kts
16-Oct-20 20:10 33.952545 -117.449181 170 770ft 3kts
16-Oct-20 20:11 33.951609 -117.446739 108 770ft 0kts
16-Oct-20 20:12 33.951609 -117.446739 108 770ft 0kts
16-Oct-20 20:13 33.951609 -117.446738 108 770ft 0kts
16-Oct-20 20:14 33.951609 -117.446737 108 770ft 0kts
16-Oct-20 20:15 33.951608 -117.446735 108 770ft 0kts
16-Oct-20 20:16 33.951608 -117.446733 108 770ft 0kts

Navigation Log

Ident Type
Flight plan parsing failed, navigation log unavailable